CSN8956 ZSOF-ZBAD
Flight info
| Callsign | CSN8956 |
|---|---|
| Flight time | N/A |
| Altitude | 36100 |
| Route | KAG03D KAGVO W127 ATVIM/K0839S1130 W127 XUZ W125 DO W126 DPX/K0843S1100 A593 DALIM W157 BEKDO/K0835S1130 W157 AVBOX AVBOX5L |
| Aircraft | A320/M-SDE3FGHIRWY/LB1 |
Departure
| Time | 2026-04-25 09:02 |
|---|---|
| Airport | Hefei Xinqiao International Airport (ZSOF) |
Arrival
| Time | N/A |
|---|---|
| Airport | Beijing Daxing International Airport (ZBAD) |
| Time | Latitude | Longitude | Altitude | Speed | Heading |
|---|---|---|---|---|---|
| 2026-04-25 08:50 | 31.99060 | 116.96578 | 218 ft | 0 kts | 179° |
| 2026-04-25 08:55 | 31.99077 | 116.96578 | 223 ft | 4 kts | 176° |
| 2026-04-25 08:56 | 31.99104 | 116.96575 | 219 ft | 4 kts | 170° |
| 2026-04-25 08:56 | 31.99129 | 116.96567 | 217 ft | 4 kts | 150° |
| 2026-04-25 08:56 | 31.99144 | 116.96549 | 219 ft | 2 kts | 91° |
| 2026-04-25 08:56 | 31.99145 | 116.96546 | 220 ft | 0 kts | 88° |
| 2026-04-25 08:58 | 31.99145 | 116.96559 | 218 ft | 5 kts | 88° |
| 2026-04-25 08:58 | 31.99145 | 116.96576 | 221 ft | 5 kts | 88° |
| 2026-04-25 08:58 | 31.99145 | 116.96666 | 219 ft | 16 kts | 92° |
| 2026-04-25 08:59 | 31.99134 | 116.96823 | 218 ft | 21 kts | 95° |
| 2026-04-25 08:59 | 31.99147 | 116.97008 | 221 ft | 25 kts | 79° |
| 2026-04-25 08:59 | 31.99197 | 116.97080 | 221 ft | 8 kts | 332° |
| 2026-04-25 08:59 | 31.99289 | 116.97021 | 217 ft | 22 kts | 330° |
| 2026-04-25 09:00 | 31.99454 | 116.96909 | 220 ft | 30 kts | 330° |
| 2026-04-25 09:00 | 31.99639 | 116.96784 | 217 ft | 31 kts | 330° |
| 2026-04-25 09:00 | 31.99829 | 116.96657 | 219 ft | 29 kts | 330° |
| 2026-04-25 09:00 | 31.99906 | 116.96652 | 219 ft | 9 kts | 41° |
| 2026-04-25 09:01 | 31.99950 | 116.96746 | 220 ft | 19 kts | 61° |
| 2026-04-25 09:01 | 31.99978 | 116.96884 | 218 ft | 18 kts | 127° |
| 2026-04-25 09:01 | 31.99871 | 116.96961 | 217 ft | 23 kts | 150° |
| 2026-04-25 09:01 | 31.99514 | 116.97202 | 216 ft | 95 kts | 150° |
| 2026-04-25 09:02 | 31.98759 | 116.97714 | 216 ft | 150 kts | 150° |
| 2026-04-25 09:02 | 31.97791 | 116.98362 | 631 ft | 162 kts | 150° |
| 2026-04-25 09:02 | 31.96810 | 116.99017 | 1381 ft | 161 kts | 150° |
| 2026-04-25 09:02 | 31.95802 | 116.99700 | 1846 ft | 177 kts | 151° |
| 2026-04-25 09:03 | 31.93415 | 117.01313 | 2551 ft | 222 kts | 150° |
| 2026-04-25 09:03 | 31.90761 | 117.03108 | 4382 ft | 220 kts | 151° |